Buckhart, Illinois
Current Conditions -  °F | °C
As of 5:52 PM on Monday 24 Nov 2014 (Local Time) from KSPI Reporting Station
Overcast Overcast  
Wind Chill: 24°   Ceiling: 3000
Heat Index: 35°   Visibility: 10mi
Dew Point: 27°   Wind: 18mph
Humidity: 72%   Direction: 260°W
Pressure: 29.83"   Gusts: NA
Location:  39.7312°N, 89.5322°W
Report Text: KSPI 242352Z 26016KT 10SM OVC030 02/M03 A2983 RMK AO2 SLP106 T00171028 10022 20011 51037
Loading
Personal Weather Stations






























Interactive Weather Map New forecast layout! Learn more

10-Day Weather Forecast

Advertisements
Track Severe Weather on mobile